Tipton Airport
KFME : now visible

Airfield :











YOU CAN JOIN US ON...

 
LOGIN :

Register | Disclaimer

   EN    FR    IT 

 









Legend :    VFR   Marginal VFR   IFR   Intensive IFR   Very Intensive IFR
Visi :
Ceiling :
>= 8 km
>= 3000ft
5 to 8 km
1000 to 3000 ft
1500m to 5 km
500 to 1000 ft
800 to 1500m
200 to 500 ft
< 800m
< 200 ft
Symbols :   Thunderstorms  Fog  Heavy snow  Heavy precipitations  Wind > 20 kt






- Airport Elevation : 150 ft


KFME - Tipton

CURRENT METAR :
  • 190233Z AUTO 00000KT 5SM BKN065 OVC070 05/03 A2978 RMK AO1

EXPIRED METARs :
  • 190215Z AUTO 00000KT 7SM BKN065 OVC075 05/03 A2978 RMK AO1
  • 190154Z AUTO 00000KT 10SM SCT065 OVC075 05/03 A2978 RMK AO1
  • 190133Z AUTO 00000KT 10SM BKN065 OVC100 05/03 A2977 RMK AO1
  • 190115Z AUTO 00000KT 10SM SCT055 SCT065 OVC100 05/03 A2978 RMK AO1
  • 190054Z AUTO 00000KT 10SM BKN050 BKN065 OVC090 05/03 A2978 RMK AO1
  • 190033Z AUTO 00000KT 10SM BKN090 OVC110 05/03 A2979 RMK AO1
  • 190015Z AUTO 00000KT 10SM SCT031 OVC110 05/03 A2979 RMK AO1
  • 182354Z AUTO 27005KT 10SM SCT031 BKN110 05/03 A2980 RMK AO1

TAF N/A



MET'MAP, your aeronautical weather chart ! - Copyright ORBIFLY December 2007 - Disclaimer

ORBIFLY MET'MAP TEAM :

Programming & Development : Alexandra Zaïnal
Concept & Development : Baudouin d'Aumeries
Co-Development & Prog : Marc-Olivier Méhu
Technical & hardware support : Manuel Goepfert

Contact : metmap@orbifly.com




SOURCES & CREDITS :

   NOAA       Earth
Advisory